createdAt,value
2019-03-28T00:02:22.939Z,19.80
2019-03-28T00:04:53.353Z,17.33
2019-03-28T00:07:24.345Z,17.63
2019-03-28T00:09:55.634Z,19.73
2019-03-28T00:12:26.272Z,17.83
2019-03-28T00:14:56.826Z,18.57
2019-03-28T00:17:27.052Z,18.67
2019-03-28T00:19:57.311Z,21.13
2019-03-28T00:22:36.018Z,20.50
2019-03-28T00:25:08.940Z,19.80
2019-03-28T00:27:40.099Z,18.97
2019-03-28T00:30:10.559Z,20.07
2019-03-28T00:32:40.792Z,19.23
2019-03-28T00:35:11.078Z,19.27
2019-03-28T00:37:42.021Z,20.80
2019-03-28T00:40:12.466Z,20.13
2019-03-28T00:42:43.115Z,17.93
2019-03-28T00:45:13.511Z,21.87
2019-03-28T00:47:43.673Z,24.53
2019-03-28T00:50:14.924Z,21.47
2019-03-28T00:52:45.206Z,19.07
2019-03-28T00:55:16.355Z,21.67
2019-03-28T00:57:46.593Z,18.80
2019-03-28T01:00:18.283Z,19.27
2019-03-28T01:02:48.452Z,21.63
2019-03-28T01:05:18.543Z,19.10
2019-03-28T01:07:48.840Z,19.43
2019-03-28T01:10:18.830Z,19.37
2019-03-28T01:12:49.191Z,17.77
2019-03-28T01:15:19.230Z,20.37
2019-03-28T01:17:49.936Z,18.40
2019-03-28T01:20:19.942Z,19.07
2019-03-28T01:22:50.097Z,19.77
2019-03-28T01:25:20.954Z,19.20
2019-03-28T01:27:50.984Z,19.27
2019-03-28T01:30:22.565Z,18.93
2019-03-28T01:32:53.233Z,19.27
2019-03-28T01:35:23.285Z,19.77
2019-03-28T01:37:54.768Z,19.30
2019-03-28T01:40:26.162Z,21.00
2019-03-28T01:42:56.758Z,18.00
2019-03-28T01:45:27.200Z,18.87
2019-03-28T01:47:57.720Z,18.97
2019-03-28T01:50:27.710Z,20.77
2019-03-28T01:52:57.912Z,19.60
2019-03-28T01:55:28.143Z,17.93
2019-03-28T01:57:58.675Z,19.27
2019-03-28T02:00:28.676Z,19.57
2019-03-28T02:02:58.670Z,18.70
2019-03-28T02:05:31.459Z,18.47
2019-03-28T02:08:02.856Z,18.30
2019-03-28T02:10:34.360Z,18.80
2019-03-28T02:13:04.318Z,17.27
2019-03-28T02:15:34.954Z,19.43
2019-03-28T02:18:04.976Z,19.10
2019-03-28T02:20:36.180Z,19.63
2019-03-28T02:23:06.843Z,19.73
2019-03-28T02:25:36.870Z,17.93
2019-03-28T02:28:09.460Z,17.30
2019-03-28T02:30:40.247Z,17.70
2019-03-28T02:33:11.078Z,17.97
2019-03-28T02:35:41.324Z,17.87
2019-03-28T02:38:11.914Z,20.10
2019-03-28T02:40:42.708Z,17.73
2019-03-28T02:43:13.149Z,16.77
2019-03-28T02:45:44.208Z,18.43
2019-03-28T02:48:14.783Z,17.77
2019-03-28T02:50:44.855Z,17.83
2019-03-28T02:53:15.147Z,17.67
2019-03-28T02:55:45.399Z,17.90
2019-03-28T02:58:16.000Z,16.93
2019-03-28T03:00:46.383Z,18.03
2019-03-28T03:03:18.158Z,16.13
2019-03-28T03:05:48.547Z,16.20
2019-03-28T03:08:18.578Z,17.43
2019-03-28T03:10:48.538Z,17.13
2019-03-28T03:13:19.865Z,16.23
2019-03-28T03:15:50.373Z,15.50
2019-03-28T03:18:21.594Z,15.33
2019-03-28T03:20:52.756Z,16.63
2019-03-28T03:23:23.043Z,16.60
2019-03-28T03:25:52.960Z,15.67
2019-03-28T03:28:23.026Z,17.03
2019-03-28T03:30:53.282Z,16.33
2019-03-28T03:33:23.314Z,17.23
2019-03-28T03:35:53.343Z,15.70
2019-03-28T03:38:23.853Z,15.60
2019-03-28T03:40:54.730Z,17.03
2019-03-28T03:43:25.595Z,17.03
2019-03-28T03:45:56.199Z,16.43
2019-03-28T03:48:26.319Z,15.97
2019-03-28T03:50:56.579Z,15.20
2019-03-28T03:53:27.366Z,15.53
2019-03-28T03:56:01.194Z,15.37
2019-03-28T03:58:31.527Z,15.10
2019-03-28T04:01:07.558Z,15.03
2019-03-28T04:03:37.441Z,15.30
2019-03-28T04:06:07.896Z,15.23
2019-03-28T04:08:38.158Z,15.23
2019-03-28T04:11:08.472Z,15.27
2019-03-28T04:13:43.473Z,14.03
2019-03-28T04:16:15.745Z,14.70
2019-03-28T04:18:46.252Z,14.23
2019-03-28T04:21:17.066Z,14.53
2019-03-28T04:23:47.394Z,13.63
2019-03-28T04:26:24.198Z,14.83
2019-03-28T04:28:54.164Z,13.47
2019-03-28T04:31:24.724Z,14.57
2019-03-28T04:33:54.731Z,13.80
2019-03-28T04:36:26.727Z,16.07
2019-03-28T04:38:57.080Z,18.35
2019-03-28T04:41:27.534Z,14.67
2019-03-28T04:43:57.633Z,13.43
2019-03-28T04:46:28.015Z,14.70
2019-03-28T04:49:01.116Z,14.10
2019-03-28T04:51:31.398Z,14.50
2019-03-28T04:54:02.266Z,14.33
2019-03-28T04:56:32.469Z,12.33
2019-03-28T04:59:02.725Z,13.57
2019-03-28T05:01:37.104Z,13.73
2019-03-28T05:04:07.626Z,14.13
2019-03-28T05:06:38.245Z,13.13
2019-03-28T05:09:09.192Z,13.73
2019-03-28T05:11:39.406Z,13.47
2019-03-28T05:14:09.988Z,13.50
2019-03-28T05:16:40.303Z,14.13
2019-03-28T05:19:11.426Z,12.50
2019-03-28T05:21:42.049Z,14.20
2019-03-28T05:24:12.538Z,14.70
2019-03-28T05:26:42.678Z,12.57
2019-03-28T05:29:13.270Z,13.47
2019-03-28T05:31:43.230Z,13.87
2019-03-28T05:34:14.825Z,13.97
2019-03-28T05:36:45.277Z,15.57
2019-03-28T05:39:16.154Z,15.63
2019-03-28T05:41:46.336Z,14.50
2019-03-28T05:44:16.258Z,14.30
2019-03-28T05:46:46.501Z,14.70
2019-03-28T05:49:16.701Z,14.83
2019-03-28T05:51:47.580Z,13.93
2019-03-28T05:54:17.631Z,12.67
2019-03-28T05:56:47.775Z,14.10
2019-03-28T05:59:17.938Z,14.73
2019-03-28T06:01:48.805Z,15.47
2019-03-28T06:04:19.012Z,16.90
2019-03-28T06:06:49.353Z,16.20
2019-03-28T06:09:19.602Z,15.90
2019-03-28T06:11:52.796Z,14.73
2019-03-28T06:14:22.301Z,14.83
2019-03-28T06:16:52.521Z,16.57
2019-03-28T06:19:23.033Z,16.60
2019-03-28T06:21:53.528Z,17.10
2019-03-28T06:24:23.908Z,16.33
2019-03-28T06:26:54.178Z,16.33
2019-03-28T06:29:25.325Z,15.87
2019-03-28T06:31:56.723Z,16.60
2019-03-28T06:34:27.586Z,16.13
2019-03-28T06:36:57.667Z,16.47
2019-03-28T06:39:27.856Z,16.60
2019-03-28T06:41:59.610Z,16.47
2019-03-28T06:44:29.670Z,15.77
2019-03-28T06:47:00.709Z,16.90
2019-03-28T06:49:30.789Z,15.73
2019-03-28T06:52:00.950Z,16.03
2019-03-28T06:54:31.100Z,16.97
2019-03-28T06:57:01.484Z,15.43
2019-03-28T06:59:37.744Z,15.90
2019-03-28T07:02:05.841Z,16.57
2019-03-28T07:04:36.414Z,16.40
2019-03-28T07:07:06.694Z,15.83
2019-03-28T07:09:36.894Z,15.40
2019-03-28T07:12:07.199Z,17.32
2019-03-28T07:14:38.132Z,15.50
2019-03-28T07:17:08.204Z,16.27
2019-03-28T07:19:38.490Z,16.17
2019-03-28T07:22:09.132Z,15.97
2019-03-28T07:24:39.692Z,15.63
2019-03-28T07:27:10.440Z,14.50
2019-03-28T07:29:50.779Z,15.00
2019-03-28T07:32:12.859Z,16.03
2019-03-28T07:34:42.794Z,15.73
2019-03-28T07:37:12.807Z,15.50
2019-03-28T07:39:43.764Z,16.17
2019-03-28T07:42:14.102Z,15.13
2019-03-28T07:44:44.160Z,13.20
2019-03-28T07:47:14.864Z,12.77
2019-03-28T07:49:45.630Z,12.37
2019-03-28T07:52:20.116Z,12.67
2019-03-28T07:54:50.209Z,12.30
2019-03-28T07:57:20.499Z,12.93
2019-03-28T08:00:03.524Z,11.90
2019-03-28T08:02:25.845Z,11.30
2019-03-28T08:04:56.130Z,12.80
2019-03-28T08:07:26.086Z,11.47
2019-03-28T08:09:56.238Z,12.17
2019-03-28T08:12:26.561Z,14.93
2019-03-28T08:14:56.915Z,16.17
2019-03-28T08:17:26.797Z,14.53
2019-03-28T08:19:56.717Z,14.47
2019-03-28T08:22:29.618Z,15.33
2019-03-28T08:25:01.932Z,14.37
2019-03-28T08:27:32.743Z,13.27
2019-03-28T08:30:03.097Z,14.10
2019-03-28T08:32:35.563Z,13.53
2019-03-28T08:35:05.748Z,13.83
2019-03-28T08:37:36.090Z,13.20
2019-03-28T08:40:07.652Z,13.93
2019-03-28T08:42:38.041Z,11.53
2019-03-28T08:45:08.632Z,12.47
2019-03-28T08:47:39.967Z,11.20
2019-03-28T08:50:10.213Z,9.23
2019-03-28T08:52:42.549Z,9.57
2019-03-28T08:55:12.591Z,9.97
2019-03-28T08:57:42.999Z,10.30
2019-03-28T09:00:16.456Z,9.80
2019-03-28T09:02:45.694Z,11.03
2019-03-28T09:05:16.036Z,11.00
2019-03-28T09:07:46.330Z,9.70
2019-03-28T09:10:16.920Z,9.90
2019-03-28T09:12:47.491Z,11.50
2019-03-28T09:15:17.686Z,10.10
2019-03-28T09:17:47.767Z,11.43
2019-03-28T09:20:18.097Z,10.80
2019-03-28T09:22:49.159Z,10.03
2019-03-28T09:25:19.440Z,10.53
2019-03-28T09:27:51.688Z,10.37
2019-03-28T09:30:47.636Z,10.70
2019-03-28T09:33:06.578Z,10.00
2019-03-28T09:35:36.941Z,9.53
2019-03-28T09:38:07.196Z,9.60
2019-03-28T09:40:37.631Z,8.50
2019-03-28T09:43:08.272Z,8.73
2019-03-28T09:45:39.359Z,9.47
2019-03-28T09:48:11.683Z,8.90
2019-03-28T09:50:42.109Z,9.13
2019-03-28T09:53:12.578Z,8.97
2019-03-28T09:55:42.902Z,9.17
2019-03-28T09:58:13.285Z,9.73
2019-03-28T10:00:43.723Z,8.97
2019-03-28T10:03:14.816Z,8.53
2019-03-28T10:05:46.196Z,9.57
2019-03-28T10:08:16.436Z,9.43
2019-03-28T10:10:48.735Z,9.33
2019-03-28T10:13:18.639Z,9.10
2019-03-28T10:18:33.582Z,8.23
2019-03-28T10:21:03.884Z,8.80
2019-03-28T10:23:39.670Z,8.57
2019-03-28T10:26:08.877Z,7.90
2019-03-28T10:28:39.082Z,7.73
2019-03-28T10:31:16.282Z,8.27
2019-03-28T10:33:42.303Z,7.20
2019-03-28T10:36:12.585Z,7.20
2019-03-28T10:38:44.426Z,6.20
2019-03-28T10:41:15.214Z,5.57
2019-03-28T10:43:46.651Z,5.33
2019-03-28T10:46:17.041Z,5.17
2019-03-28T10:48:47.071Z,5.23
2019-03-28T10:51:18.647Z,5.37
2019-03-28T10:53:48.664Z,6.17
2019-03-28T10:56:22.426Z,5.00
2019-03-28T10:58:50.993Z,5.23
2019-03-28T11:01:35.986Z,4.93
2019-03-28T11:03:53.043Z,4.93
2019-03-28T11:06:25.192Z,5.37
2019-03-28T11:08:58.257Z,4.20
2019-03-28T11:11:28.887Z,4.80
2019-03-28T11:13:59.619Z,3.50
2019-03-28T11:16:30.031Z,4.00
2019-03-28T11:19:00.079Z,5.40
2019-03-28T11:21:34.103Z,4.47
2019-03-28T11:24:02.934Z,5.40
2019-03-28T11:26:33.037Z,5.67
2019-03-28T11:29:03.434Z,4.73
2019-03-28T11:31:46.087Z,5.50
2019-03-28T11:34:11.632Z,5.17
2019-03-28T11:36:41.609Z,4.97
2019-03-28T11:39:17.437Z,3.90
2019-03-28T11:41:48.329Z,4.20
2019-03-28T11:44:19.104Z,4.63
2019-03-28T11:46:49.412Z,3.87
2019-03-28T11:49:20.183Z,4.73
2019-03-28T11:51:53.310Z,5.07
2019-03-28T11:54:24.492Z,4.67
2019-03-28T11:56:56.878Z,4.23
2019-03-28T11:59:29.297Z,4.40
2019-03-28T12:02:13.615Z,4.27
2019-03-28T12:04:38.759Z,3.30
2019-03-28T12:07:09.714Z,4.30
2019-03-28T12:09:40.669Z,4.40
2019-03-28T12:12:12.547Z,5.30
2019-03-28T12:14:50.838Z,4.83
2019-03-28T12:17:22.593Z,4.37
2019-03-28T12:19:53.354Z,4.80
2019-03-28T12:22:39.424Z,5.23
2019-03-28T12:25:11.488Z,5.80
2019-03-28T12:27:52.867Z,6.33
2019-03-28T12:30:24.822Z,5.57
2019-03-28T12:32:54.949Z,4.43
2019-03-28T12:35:46.954Z,5.03
2019-03-28T12:38:17.355Z,5.17
2019-03-28T12:40:47.474Z,4.57
2019-03-28T12:43:17.557Z,5.50
2019-03-28T12:45:48.289Z,5.40
2019-03-28T12:48:18.306Z,4.17
2019-03-28T12:50:58.236Z,4.13
2019-03-28T12:53:20.216Z,4.83
2019-03-28T12:55:50.808Z,4.40
2019-03-28T12:58:21.130Z,4.63
2019-03-28T13:00:51.406Z,5.70
2019-03-28T13:03:21.708Z,4.97
2019-03-28T13:05:52.085Z,4.60
2019-03-28T13:08:21.933Z,5.17
2019-03-28T13:10:52.023Z,5.17
2019-03-28T13:13:23.878Z,5.67
2019-03-28T13:15:53.953Z,5.63
2019-03-28T13:18:25.663Z,5.77
2019-03-28T13:20:56.074Z,4.47
2019-03-28T13:23:26.167Z,5.13
2019-03-28T13:25:56.877Z,5.30
2019-03-28T13:28:28.527Z,5.27
2019-03-28T13:30:59.535Z,4.77
2019-03-28T13:33:29.598Z,5.03
2019-03-28T13:35:59.488Z,5.60
2019-03-28T13:38:30.006Z,4.53
2019-03-28T13:40:59.943Z,5.20
2019-03-28T13:43:30.605Z,5.17
2019-03-28T13:46:01.005Z,3.87
2019-03-28T13:48:31.803Z,3.43
2019-03-28T13:51:03.506Z,3.27
2019-03-28T13:53:39.702Z,3.57
2019-03-28T13:56:05.863Z,4.47
2019-03-28T13:58:39.463Z,4.37
2019-03-28T14:01:09.797Z,4.20
2019-03-28T14:03:39.767Z,3.57
2019-03-28T14:06:09.753Z,4.07
2019-03-28T14:08:40.529Z,3.27
2019-03-28T14:11:10.625Z,3.63
2019-03-28T14:13:41.845Z,3.90
2019-03-28T14:16:12.481Z,4.60
2019-03-28T14:18:43.326Z,4.30
2019-03-28T14:21:13.334Z,4.23
2019-03-28T14:23:44.622Z,4.60
2019-03-28T14:26:14.817Z,4.70
2019-03-28T14:28:44.830Z,4.37
2019-03-28T14:31:15.741Z,4.90
2019-03-28T14:33:48.379Z,5.23
2019-03-28T14:36:18.796Z,5.27
2019-03-28T14:38:49.571Z,5.70
2019-03-28T14:43:59.790Z,6.03
2019-03-28T14:46:37.194Z,5.27
2019-03-28T14:49:07.283Z,5.93
2019-03-28T14:51:37.795Z,5.43
2019-03-28T14:54:07.946Z,6.60
2019-03-28T14:56:39.271Z,5.93
2019-03-28T14:59:14.261Z,5.43
2019-03-28T15:01:46.888Z,6.80
2019-03-28T15:04:16.966Z,6.30
2019-03-28T15:06:46.999Z,5.83
2019-03-28T15:09:23.986Z,5.90
2019-03-28T15:11:49.982Z,6.27
2019-03-28T15:14:20.890Z,6.80
2019-03-28T15:16:51.781Z,6.60
2019-03-28T15:19:21.773Z,7.13
2019-03-28T15:21:51.937Z,6.33
2019-03-28T15:24:21.921Z,6.90
2019-03-28T15:26:52.289Z,5.80
2019-03-28T15:29:22.401Z,5.33
2019-03-28T15:31:54.319Z,5.43
2019-03-28T15:34:24.337Z,4.80
2019-03-28T15:36:55.592Z,5.47
2019-03-28T15:39:27.780Z,4.27
2019-03-28T15:41:58.710Z,5.60
2019-03-28T15:44:50.561Z,5.60
2019-03-28T15:47:26.170Z,5.67
2019-03-28T15:49:56.461Z,5.13
2019-03-28T15:52:27.732Z,4.67
2019-03-28T15:54:57.932Z,4.47
2019-03-28T15:57:30.468Z,4.23
2019-03-28T16:00:01.367Z,4.93
2019-03-28T16:02:31.834Z,4.50
2019-03-28T16:05:02.184Z,6.03
2019-03-28T16:07:33.392Z,5.43
2019-03-28T16:10:03.536Z,6.50
2019-03-28T16:12:36.799Z,5.30
2019-03-28T16:15:07.248Z,5.83
2019-03-28T16:17:37.834Z,5.27
2019-03-28T16:20:09.534Z,5.23
2019-03-28T16:22:40.054Z,4.53
2019-03-28T16:25:10.964Z,4.93
2019-03-28T16:27:41.779Z,5.00
2019-03-28T16:30:13.173Z,5.30
2019-03-28T16:32:44.090Z,5.60
2019-03-28T16:35:17.272Z,5.20
2019-03-28T16:37:51.004Z,5.70
2019-03-28T16:40:23.599Z,5.23
2019-03-28T16:42:57.773Z,5.43
2019-03-28T16:45:27.967Z,5.93
2019-03-28T16:47:58.251Z,6.13
2019-03-28T16:50:28.635Z,4.63
2019-03-28T16:52:59.222Z,6.30
2019-03-28T16:55:29.520Z,5.07
2019-03-28T16:57:59.438Z,6.47
2019-03-28T17:00:39.694Z,5.83
2019-03-28T17:03:09.730Z,5.73
2019-03-28T17:05:43.273Z,5.87
2019-03-28T17:08:14.518Z,6.20
2019-03-28T17:10:46.707Z,6.10
2019-03-28T17:13:26.931Z,6.43
2019-03-28T17:15:56.865Z,6.83
2019-03-28T17:18:26.795Z,5.80
2019-03-28T17:20:56.917Z,5.73
2019-03-28T17:23:30.295Z,6.00
2019-03-28T17:26:00.675Z,7.10
2019-03-28T17:28:32.999Z,7.30
2019-03-28T17:31:04.921Z,5.53
2019-03-28T17:33:35.111Z,7.20
2019-03-28T17:36:05.819Z,8.23
2019-03-28T17:38:36.067Z,7.93
2019-03-28T17:41:07.082Z,8.83
2019-03-28T17:43:37.236Z,9.63
2019-03-28T17:46:07.843Z,8.47
2019-03-28T17:48:40.555Z,8.53
2019-03-28T17:51:10.520Z,8.93
2019-03-28T17:53:40.618Z,8.43
2019-03-28T17:56:10.558Z,8.63
2019-03-28T17:58:43.062Z,9.57
2019-03-28T18:01:13.098Z,9.63
2019-03-28T18:03:43.357Z,8.60
2019-03-28T18:06:13.366Z,8.87
2019-03-28T18:08:46.087Z,8.30
2019-03-28T18:11:16.928Z,9.40
2019-03-28T18:13:47.610Z,9.53
2019-03-28T18:16:19.510Z,10.63
2019-03-28T18:18:49.453Z,11.00
2019-03-28T18:21:19.497Z,11.13
2019-03-28T18:23:49.797Z,11.20
2019-03-28T18:26:19.847Z,12.10
2019-03-28T18:28:49.711Z,12.30
2019-03-28T18:31:19.909Z,12.30
2019-03-28T18:33:50.181Z,13.37
2019-03-28T18:36:20.093Z,13.23
2019-03-28T18:38:52.526Z,13.13
2019-03-28T18:41:21.912Z,11.90
2019-03-28T18:43:51.844Z,12.53
2019-03-28T18:46:21.729Z,12.30
2019-03-28T18:48:52.691Z,13.20
2019-03-28T18:51:22.587Z,12.70
2019-03-28T18:53:52.461Z,13.77
2019-03-28T18:56:22.305Z,13.37
2019-03-28T18:58:52.405Z,13.00
2019-03-28T19:01:22.272Z,13.50
2019-03-28T19:03:52.333Z,13.03
2019-03-28T19:06:22.205Z,15.43
2019-03-28T19:08:53.155Z,14.00
2019-03-28T19:11:24.071Z,15.17
2019-03-28T19:13:54.057Z,16.60
2019-03-28T19:16:24.291Z,15.70
2019-03-28T19:18:54.290Z,16.37
2019-03-28T19:21:24.841Z,14.47
2019-03-28T19:23:55.037Z,14.70
2019-03-28T19:26:24.935Z,16.07
2019-03-28T19:28:56.220Z,15.47
2019-03-28T19:31:29.187Z,16.87
2019-03-28T19:33:59.027Z,19.27
2019-03-28T19:36:29.761Z,21.12
2019-03-28T19:38:59.821Z,16.90
2019-03-28T19:41:29.774Z,14.97
2019-03-28T19:44:00.044Z,15.33
2019-03-28T19:46:30.063Z,16.70
2019-03-28T19:49:00.412Z,16.30
2019-03-28T19:51:30.387Z,16.90
2019-03-28T19:54:00.515Z,16.20
2019-03-28T19:56:30.389Z,17.00
2019-03-28T19:59:00.313Z,15.80
2019-03-28T20:01:33.607Z,16.00
2019-03-28T20:04:03.670Z,16.00
2019-03-28T20:06:34.468Z,15.20
2019-03-28T20:09:15.719Z,17.77
2019-03-28T20:11:37.053Z,17.70
2019-03-28T20:14:07.083Z,17.63
2019-03-28T20:16:37.485Z,17.93
2019-03-28T20:19:10.275Z,16.57
2019-03-28T20:21:44.803Z,18.33
2019-03-28T20:24:15.019Z,17.97
2019-03-28T20:26:45.172Z,16.30
2019-03-28T20:29:15.692Z,18.10
2019-03-28T20:31:45.998Z,16.97
2019-03-28T20:34:15.875Z,18.70
2019-03-28T20:36:46.034Z,17.90
2019-03-28T20:39:16.344Z,19.10
2019-03-28T20:41:46.319Z,18.13
2019-03-28T20:44:16.171Z,16.87
2019-03-28T20:46:46.025Z,17.87
2019-03-28T20:49:16.031Z,18.57
2019-03-28T20:51:45.926Z,22.97
2019-03-28T20:54:16.541Z,18.67
2019-03-28T20:56:46.629Z,17.53
2019-03-28T20:59:16.431Z,19.80
2019-03-28T21:01:46.295Z,18.53
2019-03-28T21:04:16.187Z,19.17
2019-03-28T21:06:46.848Z,17.37
2019-03-28T21:09:16.873Z,18.43
2019-03-28T21:11:48.963Z,18.77
2019-03-28T21:14:18.548Z,19.20
2019-03-28T21:16:48.669Z,17.07
2019-03-28T21:19:19.043Z,19.10
2019-03-28T21:21:49.821Z,17.90
2019-03-28T21:24:19.846Z,17.83
2019-03-28T21:26:51.064Z,18.17
2019-03-28T21:29:28.527Z,18.07
2019-03-28T21:32:02.341Z,18.30
2019-03-28T21:34:32.307Z,19.70
2019-03-28T21:37:02.335Z,19.57
2019-03-28T21:39:32.639Z,19.10
2019-03-28T21:42:02.570Z,18.90
2019-03-28T21:44:32.944Z,18.40
2019-03-28T21:47:05.622Z,21.45
2019-03-28T21:49:35.839Z,19.53
2019-03-28T21:52:07.523Z,20.30
2019-03-28T21:54:37.355Z,19.73
2019-03-28T21:57:07.347Z,18.33
2019-03-28T21:59:37.281Z,17.63
2019-03-28T22:02:08.512Z,18.13
2019-03-28T22:04:39.133Z,19.37
2019-03-28T22:07:11.851Z,18.17
2019-03-28T22:09:41.719Z,21.03
2019-03-28T22:12:19.408Z,19.03
2019-03-28T22:14:49.720Z,18.63
2019-03-28T22:17:19.846Z,20.70
2019-03-28T22:19:49.747Z,18.83
2019-03-28T22:22:19.750Z,19.50
2019-03-28T22:24:49.825Z,20.03
2019-03-28T22:27:19.770Z,18.73
2019-03-28T22:29:49.755Z,19.77
2019-03-28T22:32:19.634Z,18.10
2019-03-28T22:34:49.515Z,19.20
2019-03-28T22:37:19.509Z,20.80
2019-03-28T22:39:49.696Z,23.92
2019-03-28T22:42:19.953Z,20.07
2019-03-28T22:44:51.065Z,19.83
2019-03-28T22:47:24.484Z,20.30
2019-03-28T22:49:54.418Z,18.60
2019-03-28T22:52:24.585Z,20.03
2019-03-28T22:54:55.481Z,19.27
2019-03-28T22:57:30.738Z,19.50
2019-03-28T23:00:22.453Z,19.07
2019-03-28T23:02:55.132Z,19.83
2019-03-28T23:05:27.356Z,18.97
2019-03-28T23:07:57.630Z,20.43
2019-03-28T23:10:27.904Z,18.63
2019-03-28T23:13:00.851Z,19.40
2019-03-28T23:15:31.433Z,19.97
2019-03-28T23:18:01.417Z,19.00
2019-03-28T23:20:33.721Z,18.70
2019-03-28T23:23:03.016Z,19.07
2019-03-28T23:25:32.915Z,20.10
2019-03-28T23:28:03.142Z,19.53
2019-03-28T23:30:33.080Z,21.57
2019-03-28T23:33:03.088Z,20.13
2019-03-28T23:35:33.388Z,19.37
2019-03-28T23:38:03.748Z,19.10
2019-03-28T23:40:35.018Z,18.30
2019-03-28T23:43:05.940Z,19.50
2019-03-28T23:45:36.326Z,20.50
2019-03-28T23:48:07.292Z,21.00
2019-03-28T23:50:37.367Z,20.60
2019-03-28T23:53:08.850Z,20.13
2019-03-28T23:55:40.206Z,19.40
2019-03-28T23:58:10.498Z,19.97
